Flight Track Log - Related Links

Times and Time Zones

All times are in EDT time to prevent confusion due to time zone crossing. See the UAL335 flight status page for this flight to view local times or setup timezone preferences in your user account.

Time Position Orientation Groundspeed Altitude Reporting Facility
EDT Latitude Longitude Course Direction KTS MPH feet Rate Location/Type
Thu 08:38:26 AM 38.6500 -121.5500 78° East 177 204 2,100  Level Northern Cal TRACON
Thu 08:39:20 AM 38.6333 -121.4833 108° East 230 265 4,000 2,333 Climbing Northern Cal TRACON
Thu 08:40:00 AM 38.4922 -121.2877 80° East  Level FlightAware Approximate
Thu 08:40:14 AM 38.6333 -121.4167 90° East 266 306 6,300  Level Northern Cal TRACON
Thu 08:41:00 AM 38.5250 -121.1417 76° East  Level FlightAware Approximate
Thu 08:42:00 AM 38.5539 -120.9935 78° East  Level FlightAware Approximate
Thu 08:42:40 AM 38.6328 -121.1592 90° East 335 386 12,500  Level Oakland Center
Thu 08:43:00 AM 38.5789 -120.8441 78° East  Level FlightAware Approximate
Thu 08:43:40 AM 38.6317 -121.0328 91° East 349 402 15,400  Level Oakland Center
Thu 08:44:40 AM 38.6303 -120.9039 91° East 359 413 18,100 2,500 Climbing Oakland Center
Thu 08:45:40 AM 38.6294 -120.7719 90° East 368 423 20,400 2,182 Climbing Oakland Center
Thu 08:46:41 AM 38.6278 -120.6364 91° East 377 434 22,500 1,934 Climbing Oakland Center
Thu 08:47:41 AM 38.6256 -120.4981 91° East 386 444 24,300 1,700 Climbing Oakland Center
Thu 08:48:41 AM 38.6258 -120.3569 90° East 393 452 25,900 1,450 Climbing Oakland Center
Thu 08:49:41 AM 38.6242 -120.2122 91° East 405 466 27,200 1,339 Climbing Oakland Center
Thu 08:50:42 AM 38.6278 -120.0608 88° East 423 487 28,600 1,438 Climbing Oakland Center
Thu 08:51:42 AM 38.6283 -119.9103 90° East 425 489 30,100 1,250 Climbing Oakland Center
Thu 08:52:42 AM 38.6303 -119.7561 89° East 432 497 31,100 1,150 Climbing Oakland Center
Thu 08:53:42 AM 38.6314 -119.5986 89° East 442 509 32,400 1,190 Climbing Oakland Center
Thu 08:54:43 AM 38.6347 -119.4458 88° East 437 503 33,500 1,091 Climbing Oakland Center
Thu 08:55:43 AM 38.6361 -119.2903 89° East 438 504 34,600 1,100 Climbing Oakland Center
Thu 08:56:43 AM 38.6375 -119.1303 89° East 447 514 35,700 900 Climbing Oakland Center
Thu 08:57:43 AM 38.6397 -118.9414 89° East 447 514 36,400 645 Climbing Oakland Center
Thu 08:58:44 AM 38.6411 -118.7819 89° East 450 518 37,000 298 Climbing Oakland Center
Thu 08:59:44 AM 38.6419 -118.6231 90° East 450 518 37,000  Level Oakland Center
Thu 09:00:44 AM 38.6431 -118.4625 89° East 453 521 37,000  Level Oakland Center
Thu 09:01:44 AM 38.6433 -118.3011 90° East 455 524 37,000  Level Oakland Center
Thu 09:02:45 AM 38.6439 -118.1394 90° East 456 525 37,000  Level Oakland Center
Thu 09:03:45 AM 38.6442 -118.0000 90° East 455 524 37,000  Level Oakland Center
Thu 09:04:45 AM 38.6436 -117.8386 90° East 454 522 37,000  Level Oakland Center
Thu 09:05:45 AM 38.6433 -117.6756 90° East 455 524 37,000  Level Oakland Center
Thu 09:06:46 AM 38.6422 -117.5131 90° East 454 522 37,000  Level Oakland Center
Thu 09:07:39 AM 38.6417 -117.3497 90° East 457 526 37,000  Level Salt Lake Center
Thu 09:08:40 AM 38.6406 -117.1858 90° East 457 526 37,000  Level Salt Lake Center
Thu 09:09:41 AM 38.6381 -117.0203 91° East 461 531 37,000 47 Level Salt Lake Center
Thu 09:10:47 AM 38.6369 -116.8544 90° East 464 534 37,100  Climbing Oakland Center
Thu 09:11:47 AM 38.6358 -116.6911 90° East 460 529 37,000 -52 Descending Oakland Center
Thu 09:12:43 AM 38.6336 -116.5261 91° East 461 531 37,000  Level Salt Lake Center
Thu 09:13:44 AM 38.6311 -116.3631 91° East 459 528 37,000  Level Salt Lake Center
Thu 09:14:45 AM 38.6289 -116.1983 91° East 461 531 37,000  Level Salt Lake Center
Thu 09:15:46 AM 38.6256 -116.0328 91° East 465 535 37,000  Level Salt Lake Center
Thu 09:16:47 AM 38.6233 -115.8667 91° East 467 537 37,000  Level Salt Lake Center
Thu 09:17:48 AM 38.6194 -115.7008 92° East 466 536 37,000  Level Salt Lake Center
Thu 09:18:49 AM 38.6161 -115.5344 91° East 467 537 37,000  Level Salt Lake Center
Thu 09:19:50 AM 38.6133 -115.3700 91° East 465 535 37,000  Level Salt Lake Center
Thu 09:20:51 AM 38.6103 -115.1947 91° East 467 537 37,000  Level Salt Lake Center
Thu 09:21:52 AM 38.6058 -115.0167 92° East 468 539 37,000  Level Salt Lake Center
Thu 09:22:53 AM 38.6019 -114.8517 92° East 466 536 37,000  Level Salt Lake Center
Thu 09:23:54 AM 38.5969 -114.6856 92° East 467 537 37,000  Level Salt Lake Center
Thu 09:24:55 AM 38.5917 -114.5203 92° East 466 536 37,000  Level Salt Lake Center
Thu 09:25:56 AM 38.5869 -114.3544 92° East 468 539 37,000  Level Salt Lake Center
Thu 09:26:58 AM 38.5822 -114.1878 92° East 469 540 37,000  Level Salt Lake Center
Thu 09:27:59 AM 38.5775 -114.0208 92° East 469 540 37,000  Level Salt Lake Center
Thu 09:29:00 AM 38.5717 -113.8544 93° East 470 541 37,000  Level Salt Lake Center
Thu 09:30:01 AM 38.5653 -113.6883 93° East 468 539 37,000  Level Salt Lake Center
Thu 09:31:02 AM 38.5575 -113.4925 93° East 462 532 37,000  Level Salt Lake Center
Thu 09:32:03 AM 38.5514 -113.3283 93° East 463 533 37,000  Level Salt Lake Center
Thu 09:33:04 AM 38.5453 -113.1611 93° East 467 537 37,000  Level Salt Lake Center
Thu 09:34:06 AM 38.5378 -112.9953 93° East 468 539 37,000  Level Salt Lake Center
Thu 09:35:07 AM 38.5308 -112.8303 93° East 466 536 37,000  Level Salt Lake Center
Thu 09:36:08 AM 38.5231 -112.6647 93° East 466 536 37,000  Level Salt Lake Center
Thu 09:37:09 AM 38.5147 -112.4964 94° East 472 543 37,000  Level Salt Lake Center
Thu 09:38:10 AM 38.5075 -112.3275 93° East 476 548 37,000  Level Salt Lake Center
Thu 09:39:12 AM 38.4994 -112.1600 93° East 474 545 37,000  Level Salt Lake Center
Thu 09:40:13 AM 38.4900 -111.9925 94° East 473 544 37,000  Level Salt Lake Center
Thu 09:41:14 AM 38.4825 -111.8258 93° East 473 544 37,000  Level Salt Lake Center
Thu 09:42:15 AM 38.4731 -111.6575 94° East 476 548 37,000  Level Salt Lake Center
Thu 09:43:17 AM 38.4625 -111.4556 94° East 476 548 37,000  Level Salt Lake Center
Thu 09:44:18 AM 38.4533 -111.2872 94° East 476 548 37,000  Level Salt Lake Center
Thu 09:45:19 AM 38.4428 -111.1189 95° East 477 549 37,000  Level Salt Lake Center
Thu 09:46:20 AM 38.4336 -110.9522 94° East 474 545 37,000  Level Salt Lake Center
Thu 09:47:22 AM 38.4217 -110.7778 95° East 475 547 37,000  Level Salt Lake Center
Thu 09:48:23 AM 38.4183 -110.6156 91° East 479 551 37,000  Level Salt Lake Center
Thu 09:49:14 AM 38.4219 -110.4525 88° East 480 552 37,000  Level Denver Center
Thu 09:50:26 AM 38.4278 -110.2633 88° East 481 554 37,000  Level Salt Lake Center
Thu 09:51:17 AM 38.4278 -110.1244 90° East 485 558 37,000  Level Denver Center
Thu 09:52:18 AM 38.4322 -109.9317 88° East 488 562 37,000  Level Denver Center
Thu 09:53:19 AM 38.4353 -109.7650 89° East 492 566 37,000  Level Denver Center
Thu 09:54:20 AM 38.4381 -109.5994 89° East 491 565 37,000  Level Denver Center
Thu 09:55:21 AM 38.4403 -109.4061 89° East 491 565 37,000  Level Denver Center
Thu 09:56:23 AM 38.4422 -109.2347 89° East 500 575 37,000  Level Denver Center
Thu 09:57:24 AM 38.4450 -109.0358 89° East 504 580 37,000  Level Denver Center
Thu 09:58:25 AM 38.4467 -108.8658 89° East 501 577 37,000  Level Denver Center
Thu 09:59:26 AM 38.4486 -108.6950 89° East 504 580 37,000  Level Denver Center
Thu 10:00:28 AM 38.4489 -108.4964 90° East 502 578 37,000  Level Denver Center
Thu 10:01:29 AM 38.4508 -108.3261 89° East 503 579 37,000  Level Denver Center
Thu 10:02:30 AM 38.4517 -108.1253 90° East 506 582 37,000  Level Denver Center
Thu 10:03:32 AM 38.4517 -107.9547 90° East 505 581 37,000  Level Denver Center
Thu 10:04:33 AM 38.4508 -107.7842 90° East 504 580 37,000  Level Denver Center
Thu 10:05:34 AM 38.4719 -107.5867 82° East 506 582 37,000 -439 Level Denver Center
Thu 10:06:36 AM 38.5275 -107.4247 66° East 520 598 36,100 -976 Descending Denver Center
Thu 10:07:37 AM 38.6081 -107.2461 60° Northeast 519 597 35,000 -1,082 Descending Denver Center
Thu 10:08:38 AM 38.6675 -107.1122 60° Northeast 519 597 33,900 -1,220 Descending Denver Center
Thu 10:09:40 AM 38.7467 -106.9339 60° Northeast 482 555 32,500 -1,220 Descending Denver Center
Thu 10:10:41 AM 38.8092 -106.7906 61° Northeast 464 534 31,400 -1,171 Descending Denver Center
Thu 10:11:43 AM 38.8758 -106.6386 61° Northeast 492 566 30,100 -1,317 Descending Denver Center
Thu 10:12:44 AM 38.9542 -106.4731 59° Northeast 503 579 28,700 -1,268 Descending Denver Center
Thu 10:13:46 AM 39.0225 -106.3244 59° Northeast 504 580 27,500 -1,171 Descending Denver Center
Thu 10:14:47 AM 39.0892 -106.1783 60° Northeast 498 573 26,300 -1,854 Descending Denver Center
Thu 10:15:49 AM 39.1644 -106.0078 60° Northeast 467 537 23,700 -2,244 Descending Denver Center
Thu 10:16:50 AM 39.2247 -105.8678 61° Northeast 448 516 21,700 -1,854 Descending Denver Center
Thu 10:17:52 AM 39.2842 -105.7347 60° Northeast 428 493 19,900 -1,561 Descending Denver Center
Thu 10:18:53 AM 39.3397 -105.6069 61° Northeast 407 468 18,500 -1,171 Descending Denver Center
Thu 10:19:55 AM 39.3836 -105.5047 61° Northeast 393 452 17,500 -1,210 Descending Denver Center
Thu 10:20:57 AM 39.4011 -105.3483 82° East 360 414 16,000 -1,366 Descending Denver Center
Thu 10:21:58 AM 39.4069 -105.2219 87° East 353 406 14,700 -1,122 Descending Denver Center
Thu 10:23:00 AM 39.4125 -105.0997 87° East 339 390 13,700 -726 Descending Denver Center
Thu 10:24:02 AM 39.4181 -104.9811 86° East 309 356 13,200 -978 Descending Denver Center
Thu 10:25:15 AM 39.4467 -104.8853 69° East 293 337 11,500 -1,422 Descending Denver Center
Thu 10:26:17 AM 39.5222 -104.8036 40° Northeast 288 331 10,000 -1,016 Descending Denver Center
Thu 10:27:19 AM 39.6000 -104.7536 26° Northeast 287 330 9,400 -581 Descending Denver Center

Login

Don't have an account? Register now (free) for customized features, flight alerts, and more!